Fort Screven, Georgia
Current Conditions -  °F | °C
As of 12:28 AM on Wednesday 26 Nov 2014 (Local Time) from KSVN Reporting Station
Heavy Rain Heavy Rain  
Wind Chill: 59°   Ceiling: 500
Heat Index: 59°   Visibility: 5mi
Dew Point: 59°   Wind: 10mph
Humidity: 100%   Direction: 320°NW
Pressure: 29.85"   Gusts: NA
Location:  32.0073°N, 80.8681°W
Report Text: KSVN 260528Z AUTO 32009KT 5SM R28/4500FT +RA BR OVC005 15/15 A2985 RMK AO2
Loading
Personal Weather Stations






























Interactive Weather Map New forecast layout! Learn more

10-Day Weather Forecast

Advertisements
Track Severe Weather on mobile